createdAt,value
2018-05-26T00:02:01.783Z,21.97
2018-05-26T00:04:30.643Z,23.70
2018-05-26T00:06:58.157Z,21.20
2018-05-26T00:09:26.381Z,22.63
2018-05-26T00:11:53.908Z,22.90
2018-05-26T00:14:21.804Z,23.50
2018-05-26T00:16:49.354Z,23.23
2018-05-26T00:19:17.265Z,23.07
2018-05-26T00:21:45.917Z,25.13
2018-05-26T00:24:13.423Z,22.10
2018-05-26T00:26:40.939Z,21.30
2018-05-26T00:29:08.462Z,23.63
2018-05-26T00:31:35.977Z,26.13
2018-05-26T00:34:03.556Z,24.43
2018-05-26T00:36:31.501Z,24.40
2018-05-26T00:38:59.019Z,26.73
2018-05-26T00:41:27.293Z,25.10
2018-05-26T00:43:54.867Z,27.57
2018-05-26T00:46:23.139Z,26.17
2018-05-26T00:48:50.649Z,27.03
2018-05-26T00:51:21.481Z,28.23
2018-05-26T00:53:50.239Z,27.00
2018-05-26T00:56:17.747Z,26.83
2018-05-26T00:58:45.643Z,28.60
2018-05-26T01:01:14.293Z,29.77
2018-05-26T01:03:43.313Z,29.40
2018-05-26T01:06:10.836Z,27.67
2018-05-26T01:08:39.107Z,28.30
2018-05-26T01:11:07.400Z,27.07
2018-05-26T01:13:34.921Z,26.67
2018-05-26T01:16:02.427Z,27.13
2018-05-26T01:18:29.964Z,26.40
2018-05-26T01:20:57.859Z,27.60
2018-05-26T01:23:26.143Z,27.53
2018-05-26T01:25:53.680Z,25.47
2018-05-26T01:28:21.602Z,27.20
2018-05-26T01:30:49.103Z,27.67
2018-05-26T01:33:17.390Z,29.70
2018-05-26T01:35:45.655Z,28.27
2018-05-26T01:38:13.935Z,26.50
2018-05-26T01:40:42.804Z,28.27
2018-05-26T01:43:10.703Z,28.20
2018-05-26T01:45:38.983Z,30.13
2018-05-26T01:48:07.245Z,30.10
2018-05-26T01:50:35.149Z,28.53
2018-05-26T01:53:03.057Z,25.93
2018-05-26T01:55:31.719Z,28.70
2018-05-26T01:57:59.633Z,26.67
2018-05-26T02:00:27.931Z,27.07
2018-05-26T02:02:55.437Z,26.70
2018-05-26T02:05:23.721Z,24.07
2018-05-26T02:07:52.005Z,25.70
2018-05-26T02:10:20.314Z,25.90
2018-05-26T02:12:48.285Z,24.90
2018-05-26T02:15:15.790Z,23.77
2018-05-26T02:17:43.319Z,24.80
2018-05-26T02:20:10.828Z,24.90
2018-05-26T02:22:39.101Z,25.60
2018-05-26T02:25:06.641Z,24.10
2018-05-26T02:27:34.165Z,24.93
2018-05-26T02:30:01.672Z,23.67
2018-05-26T02:32:30.697Z,23.73
2018-05-26T02:34:58.216Z,23.70
2018-05-26T02:37:25.724Z,22.40
2018-05-26T02:39:53.643Z,23.77
2018-05-26T02:42:21.159Z,22.20
2018-05-26T02:44:49.449Z,24.67
2018-05-26T02:47:16.965Z,22.80
2018-05-26T02:49:45.247Z,24.23
2018-05-26T02:52:14.100Z,26.67
2018-05-26T02:54:41.625Z,25.80
2018-05-26T02:57:09.536Z,25.57
2018-05-26T02:59:37.051Z,25.50
2018-05-26T03:02:04.953Z,25.57
2018-05-26T03:04:38.398Z,23.80
2018-05-26T03:07:12.403Z,22.87
2018-05-26T03:09:46.457Z,25.63
2018-05-26T03:12:19.737Z,24.97
2018-05-26T03:14:47.543Z,22.67
2018-05-26T03:17:19.314Z,22.50
2018-05-26T03:19:46.863Z,21.27
2018-05-26T03:22:14.373Z,24.07
2018-05-26T03:24:41.878Z,23.50
2018-05-26T03:27:09.491Z,26.83
2018-05-26T03:29:36.993Z,25.50
2018-05-26T03:32:04.510Z,23.33
2018-05-26T03:34:32.013Z,23.10
2018-05-26T03:36:59.534Z,23.20
2018-05-26T03:39:27.810Z,25.20
2018-05-26T03:41:55.341Z,23.97
2018-05-26T03:44:24.353Z,27.40
2018-05-26T03:46:51.864Z,26.90
2018-05-26T03:49:19.385Z,26.23
2018-05-26T03:51:46.889Z,26.37
2018-05-26T03:54:14.810Z,25.57
2018-05-26T03:57:03.047Z,24.13
2018-05-26T03:59:52.220Z,25.67
2018-05-26T04:02:19.722Z,26.77
2018-05-26T04:04:47.234Z,21.83
2018-05-26T04:07:15.143Z,26.73
2018-05-26T04:09:43.068Z,26.20
2018-05-26T04:12:10.587Z,28.47
2018-05-26T04:14:38.101Z,26.70
2018-05-26T04:17:05.608Z,29.80
2018-05-26T04:19:33.890Z,30.70
2018-05-26T04:22:01.802Z,28.00
2018-05-26T04:24:29.333Z,27.53
2018-05-26T04:26:57.235Z,28.67
2018-05-26T04:29:24.764Z,28.03
2018-05-26T04:31:52.709Z,31.03
2018-05-26T04:34:20.990Z,28.70
2018-05-26T04:36:49.323Z,29.43
2018-05-26T04:39:18.342Z,28.63
2018-05-26T04:41:45.887Z,30.50
2018-05-26T04:44:13.802Z,29.97
2018-05-26T04:46:41.333Z,29.03
2018-05-26T04:49:10.479Z,30.07
2018-05-26T04:51:38.791Z,29.90
2018-05-26T04:54:07.062Z,28.23
2018-05-26T04:56:34.981Z,27.43
2018-05-26T04:59:03.384Z,27.23
2018-05-26T05:01:30.902Z,27.20
2018-05-26T05:03:59.190Z,26.90
2018-05-26T05:06:27.464Z,28.00
2018-05-26T05:08:55.786Z,27.87
2018-05-26T05:11:23.299Z,27.80
2018-05-26T05:13:51.576Z,25.90
2018-05-26T05:16:19.854Z,26.10
2018-05-26T05:18:47.800Z,30.83
2018-05-26T05:21:16.100Z,29.63
2018-05-26T05:23:44.017Z,29.17
2018-05-26T05:26:11.915Z,27.50
2018-05-26T05:28:40.198Z,27.60
2018-05-26T05:31:07.732Z,28.30
2018-05-26T05:33:35.230Z,26.00
2018-05-26T05:36:03.598Z,28.23
2018-05-26T05:38:31.882Z,26.73
2018-05-26T05:41:00.221Z,27.67
2018-05-26T05:43:28.499Z,28.27
2018-05-26T05:45:56.023Z,28.80
2018-05-26T05:48:24.311Z,28.10
2018-05-26T05:50:51.883Z,26.43
2018-05-26T05:53:19.390Z,27.00
2018-05-26T05:55:47.763Z,22.93
2018-05-26T05:58:15.271Z,23.53
2018-05-26T06:00:42.789Z,24.80
2018-05-26T06:03:11.067Z,25.60
2018-05-26T06:05:39.329Z,24.13
2018-05-26T06:08:06.855Z,24.83
2018-05-26T06:10:35.133Z,24.97
2018-05-26T06:13:02.651Z,25.27
2018-05-26T06:15:30.940Z,26.33
2018-05-26T06:17:58.500Z,25.73
2018-05-26T06:20:26.010Z,24.60
2018-05-26T06:22:53.543Z,22.03
2018-05-26T06:25:21.046Z,25.37
2018-05-26T06:27:49.328Z,25.10
2018-05-26T06:30:17.621Z,22.30
2018-05-26T06:32:45.528Z,23.80
2018-05-26T06:35:13.058Z,25.47
2018-05-26T06:37:40.600Z,24.63
2018-05-26T06:40:08.893Z,23.17
2018-05-26T06:42:37.979Z,25.03
2018-05-26T06:45:05.516Z,24.23
2018-05-26T06:47:33.023Z,23.30
2018-05-26T06:50:00.535Z,27.30
2018-05-26T06:52:28.384Z,26.23
2018-05-26T06:54:55.897Z,25.77
2018-05-26T06:57:23.417Z,26.63
2018-05-26T06:59:50.938Z,23.83
2018-05-26T07:02:18.457Z,25.13
2018-05-26T07:04:46.726Z,19.70
2018-05-26T07:07:14.273Z,18.07
2018-05-26T07:09:42.175Z,21.17
2018-05-26T07:12:09.696Z,22.27
2018-05-26T07:14:37.607Z,20.43
2018-05-26T07:17:05.118Z,20.67
2018-05-26T07:19:33.043Z,17.40
2018-05-26T07:22:00.566Z,19.20
2018-05-26T07:24:28.594Z,19.53
2018-05-26T07:26:56.104Z,20.07
2018-05-26T07:29:24.390Z,19.73
2018-05-26T07:31:51.898Z,17.60
2018-05-26T07:34:19.796Z,18.80
2018-05-26T07:36:48.084Z,19.20
2018-05-26T07:39:15.604Z,17.23
2018-05-26T07:41:43.402Z,16.93
2018-05-26T07:44:11.694Z,16.30
2018-05-26T07:46:39.222Z,16.70
2018-05-26T07:49:06.744Z,18.13
2018-05-26T07:51:34.667Z,16.57
2018-05-26T07:54:02.202Z,17.03
2018-05-26T07:56:30.516Z,16.30
2018-05-26T07:58:58.033Z,16.30
2018-05-26T08:01:25.600Z,15.07
2018-05-26T08:03:53.885Z,14.80
2018-05-26T08:06:22.166Z,17.10
2018-05-26T08:08:50.453Z,16.03
2018-05-26T08:11:18.732Z,16.33
2018-05-26T08:13:47.019Z,14.80
2018-05-26T08:16:15.312Z,14.90
2018-05-26T08:18:43.612Z,15.43
2018-05-26T08:21:11.119Z,16.40
2018-05-26T08:23:39.408Z,15.03
2018-05-26T08:26:06.923Z,14.20
2018-05-26T08:28:34.462Z,14.13
2018-05-26T08:31:01.989Z,14.07
2018-05-26T08:33:29.499Z,13.73
2018-05-26T08:35:57.032Z,14.00
2018-05-26T08:38:24.550Z,14.97
2018-05-26T08:40:52.843Z,15.13
2018-05-26T08:43:20.738Z,13.10
2018-05-26T08:45:48.675Z,12.17
2018-05-26T08:48:16.199Z,12.73
2018-05-26T08:50:43.723Z,12.67
2018-05-26T08:53:11.313Z,12.83
2018-05-26T08:55:38.818Z,11.17
2018-05-26T08:58:06.348Z,12.80
2018-05-26T09:00:33.835Z,12.37
2018-05-26T09:03:01.361Z,14.03
2018-05-26T09:05:28.886Z,14.07
2018-05-26T09:07:56.411Z,13.20
2018-05-26T09:10:23.923Z,12.53
2018-05-26T09:12:51.426Z,12.37
2018-05-26T09:15:18.959Z,11.70
2018-05-26T09:17:46.863Z,12.03
2018-05-26T09:20:14.783Z,12.87
2018-05-26T09:22:42.301Z,12.60
2018-05-26T09:25:09.877Z,11.90
2018-05-26T09:27:37.736Z,10.90
2018-05-26T09:30:05.249Z,11.10
2018-05-26T09:32:33.524Z,11.33
2018-05-26T09:35:02.033Z,11.50
2018-05-26T09:37:29.555Z,10.60
2018-05-26T09:39:57.069Z,8.23
2018-05-26T09:42:24.591Z,9.63
2018-05-26T09:44:52.868Z,9.27
2018-05-26T09:47:20.416Z,11.80
2018-05-26T09:49:48.686Z,11.40
2018-05-26T09:52:16.226Z,10.00
2018-05-26T09:54:43.725Z,11.10
2018-05-26T09:57:12.050Z,9.20
2018-05-26T09:59:39.632Z,8.97
2018-05-26T10:02:07.200Z,7.60
2018-05-26T10:04:34.704Z,7.33
2018-05-26T10:07:02.968Z,6.50
2018-05-26T10:09:30.474Z,7.40
2018-05-26T10:11:58.433Z,8.23
2018-05-26T10:14:25.970Z,8.13
2018-05-26T10:16:53.490Z,7.70
2018-05-26T10:19:21.772Z,7.20
2018-05-26T10:21:50.030Z,7.07
2018-05-26T10:24:17.530Z,6.17
2018-05-26T10:26:45.032Z,5.40
2018-05-26T10:29:12.954Z,6.90
2018-05-26T10:31:40.462Z,5.50
2018-05-26T10:34:07.984Z,4.73
2018-05-26T10:36:36.246Z,5.47
2018-05-26T10:39:04.520Z,7.50
2018-05-26T10:41:32.799Z,6.70
2018-05-26T10:44:00.311Z,7.93
2018-05-26T10:46:28.614Z,6.23
2018-05-26T10:48:56.114Z,6.87
2018-05-26T10:51:23.736Z,5.73
2018-05-26T10:53:52.006Z,5.60
2018-05-26T10:56:19.918Z,5.27
2018-05-26T10:58:47.418Z,5.27
2018-05-26T11:01:14.930Z,5.10
2018-05-26T11:03:42.436Z,4.30
2018-05-26T11:06:09.970Z,5.90
2018-05-26T11:08:37.531Z,4.70
2018-05-26T11:11:05.424Z,5.00
2018-05-26T11:13:33.712Z,4.13
2018-05-26T11:16:01.994Z,4.93
2018-05-26T11:18:30.282Z,4.17
2018-05-26T11:20:58.570Z,4.93
2018-05-26T11:23:26.109Z,4.20
2018-05-26T11:25:53.653Z,4.53
2018-05-26T11:28:22.932Z,4.73
2018-05-26T11:30:50.538Z,5.00
2018-05-26T11:33:18.450Z,4.67
2018-05-26T11:35:45.956Z,3.90
2018-05-26T11:38:14.259Z,3.07
2018-05-26T11:40:41.796Z,3.23
2018-05-26T11:43:09.335Z,3.90
2018-05-26T11:45:37.604Z,4.90
2018-05-26T11:48:05.123Z,4.20
2018-05-26T11:50:33.081Z,5.23
2018-05-26T11:53:00.588Z,4.20
2018-05-26T11:55:28.124Z,4.20
2018-05-26T11:57:55.624Z,4.10
2018-05-26T12:00:23.915Z,4.13
2018-05-26T12:02:52.185Z,4.00
2018-05-26T12:05:20.482Z,4.40
2018-05-26T12:07:47.990Z,4.27
2018-05-26T12:10:16.266Z,5.07
2018-05-26T12:12:44.571Z,4.97
2018-05-26T12:15:12.849Z,4.27
2018-05-26T12:17:40.751Z,3.70
2018-05-26T12:20:08.255Z,3.60
2018-05-26T12:22:35.775Z,3.07
2018-05-26T12:25:03.711Z,3.90
2018-05-26T12:27:32.015Z,3.60
2018-05-26T12:29:59.904Z,3.30
2018-05-26T12:32:28.205Z,3.27
2018-05-26T12:34:55.708Z,4.07
2018-05-26T12:37:23.226Z,3.87
2018-05-26T12:39:50.765Z,3.73
2018-05-26T12:42:18.265Z,4.20
2018-05-26T12:44:46.540Z,4.30
2018-05-26T12:47:14.441Z,3.77
2018-05-26T12:49:41.962Z,4.03
2018-05-26T12:52:09.513Z,4.30
2018-05-26T12:54:37.051Z,3.90
2018-05-26T12:57:04.547Z,3.97
2018-05-26T12:59:32.837Z,3.90
2018-05-26T13:02:00.749Z,4.13
2018-05-26T13:04:28.274Z,4.03
2018-05-26T13:06:55.796Z,5.60
2018-05-26T13:09:23.311Z,4.27
2018-05-26T13:11:50.824Z,4.53
2018-05-26T13:14:19.224Z,3.50
2018-05-26T13:16:46.745Z,3.93
2018-05-26T13:19:14.257Z,4.60
2018-05-26T13:21:42.167Z,4.33
2018-05-26T13:24:09.671Z,4.13
2018-05-26T13:26:38.068Z,3.43
2018-05-26T13:29:05.585Z,3.83
2018-05-26T13:31:33.903Z,4.17
2018-05-26T13:34:01.448Z,3.47
2018-05-26T13:36:28.962Z,3.73
2018-05-26T13:38:56.483Z,4.23
2018-05-26T13:41:24.868Z,3.80
2018-05-26T13:43:52.418Z,6.20
2018-05-26T13:46:19.937Z,3.70
2018-05-26T13:48:48.569Z,3.87
2018-05-26T13:51:16.147Z,3.97
2018-05-26T13:53:43.679Z,3.57
2018-05-26T13:56:11.598Z,4.20
2018-05-26T13:58:39.471Z,3.30
2018-05-26T14:01:07.369Z,3.47
2018-05-26T14:03:35.678Z,3.60
2018-05-26T14:06:03.471Z,3.40
2018-05-26T14:08:30.979Z,4.10
2018-05-26T14:10:58.587Z,3.20
2018-05-26T14:13:26.074Z,3.70
2018-05-26T14:15:54.425Z,3.43
2018-05-26T14:18:22.134Z,3.50
2018-05-26T14:20:49.648Z,4.00
2018-05-26T14:23:17.178Z,3.80
2018-05-26T14:25:44.689Z,3.10
2018-05-26T14:28:12.969Z,3.43
2018-05-26T14:30:41.293Z,3.60
2018-05-26T14:33:08.804Z,3.70
2018-05-26T14:35:36.745Z,3.83
2018-05-26T14:38:04.251Z,3.50
2018-05-26T14:40:32.528Z,3.67
2018-05-26T14:43:00.027Z,4.03
2018-05-26T14:45:27.529Z,3.43
2018-05-26T14:47:55.823Z,3.83
2018-05-26T14:50:23.356Z,3.60
2018-05-26T14:52:51.367Z,3.30
2018-05-26T14:55:18.895Z,3.40
2018-05-26T14:57:47.186Z,4.33
2018-05-26T15:00:14.732Z,3.40
2018-05-26T15:02:42.652Z,3.10
2018-05-26T15:05:10.932Z,3.73
2018-05-26T15:07:38.423Z,3.60
2018-05-26T15:10:06.724Z,3.93
2018-05-26T15:12:34.245Z,4.20
2018-05-26T15:15:01.772Z,3.90
2018-05-26T15:17:29.339Z,5.20
2018-05-26T15:19:56.857Z,3.73
2018-05-26T15:22:25.135Z,3.40
2018-05-26T15:24:53.414Z,3.87
2018-05-26T15:27:20.914Z,4.33
2018-05-26T15:29:48.443Z,4.13
2018-05-26T15:32:15.949Z,3.10
2018-05-26T15:34:43.479Z,3.20
2018-05-26T15:37:11.000Z,3.93
2018-05-26T15:39:39.286Z,3.60
2018-05-26T15:42:06.807Z,14.77
2018-05-26T15:44:34.328Z,6.40
2018-05-26T15:47:01.856Z,13.63
2018-05-26T15:49:30.132Z,4.90
2018-05-26T15:51:57.661Z,3.50
2018-05-26T15:54:26.672Z,2.90
2018-05-26T15:56:54.954Z,16.17
2018-05-26T15:59:23.252Z,4.37
2018-05-26T16:01:50.750Z,4.57
2018-05-26T16:04:18.260Z,3.17
2018-05-26T16:06:46.526Z,4.13
2018-05-26T16:09:14.800Z,3.10
2018-05-26T16:11:43.091Z,3.10
2018-05-26T16:14:10.613Z,9.63
2018-05-26T16:16:38.886Z,5.93
2018-05-26T16:19:06.405Z,4.20
2018-05-26T16:21:34.298Z,6.90
2018-05-26T16:24:03.335Z,3.47
2018-05-26T16:26:31.602Z,4.30
2018-05-26T16:28:59.104Z,3.37
2018-05-26T16:31:26.624Z,3.30
2018-05-26T16:33:54.906Z,2.67
2018-05-26T16:36:23.186Z,3.60
2018-05-26T16:38:51.462Z,4.10
2018-05-26T16:41:19.746Z,3.13
2018-05-26T16:43:48.008Z,3.40
2018-05-26T16:46:16.274Z,3.00
2018-05-26T16:48:45.300Z,3.03
2018-05-26T16:51:12.877Z,3.13
2018-05-26T16:53:40.777Z,3.80
2018-05-26T16:56:08.293Z,3.57
2018-05-26T16:58:35.800Z,2.40
2018-05-26T17:01:04.078Z,3.17
2018-05-26T17:03:33.097Z,3.60
2018-05-26T17:06:01.364Z,3.07
2018-05-26T17:08:29.261Z,3.63
2018-05-26T17:10:56.770Z,3.20
2018-05-26T17:13:24.281Z,3.47
2018-05-26T17:15:51.806Z,3.20
2018-05-26T17:18:20.081Z,3.27
2018-05-26T17:20:47.584Z,2.93
2018-05-26T17:23:15.127Z,3.00
2018-05-26T17:25:43.394Z,3.47
2018-05-26T17:28:11.335Z,3.07
2018-05-26T17:30:38.834Z,3.20
2018-05-26T17:33:06.334Z,3.50
2018-05-26T17:35:33.859Z,4.57
2018-05-26T17:38:01.365Z,4.13
2018-05-26T17:40:28.873Z,19.07
2018-05-26T17:42:56.399Z,118.60
2018-05-26T17:45:23.935Z,16.10
2018-05-26T17:47:51.841Z,11.03
2018-05-26T17:50:19.761Z,4.10
2018-05-26T17:52:47.255Z,3.50
2018-05-26T17:55:14.805Z,3.67
2018-05-26T17:57:42.311Z,3.40
2018-05-26T18:00:09.817Z,3.40
2018-05-26T18:02:37.332Z,4.10
2018-05-26T18:05:04.841Z,3.50
2018-05-26T18:07:33.147Z,3.33
2018-05-26T18:10:01.425Z,3.10
2018-05-26T18:12:29.713Z,3.20
2018-05-26T18:14:57.617Z,3.73
2018-05-26T18:17:25.145Z,5.67
2018-05-26T18:19:54.008Z,7.43
2018-05-26T18:22:21.922Z,4.37
2018-05-26T18:24:50.193Z,6.40
2018-05-26T18:27:17.734Z,14.23
2018-05-26T18:29:45.308Z,15.10
2018-05-26T18:32:14.153Z,12.83
2018-05-26T18:34:41.680Z,7.23
2018-05-26T18:37:09.985Z,5.00
2018-05-26T18:39:37.505Z,11.10
2018-05-26T18:42:06.356Z,5.50
2018-05-26T18:44:34.646Z,7.37
2018-05-26T18:47:02.942Z,20.43
2018-05-26T18:49:30.462Z,21.97
2018-05-26T18:51:58.772Z,49.90
2018-05-26T18:54:26.329Z,79.57
2018-05-26T18:56:53.843Z,67.43
2018-05-26T18:59:22.133Z,50.63
2018-05-26T19:01:50.432Z,64.17
2018-05-26T19:04:17.943Z,21.97
2018-05-26T19:06:45.488Z,7.87
2018-05-26T19:09:13.025Z,7.07
2018-05-26T19:11:40.937Z,7.80
2018-05-26T19:14:08.452Z,7.00
2018-05-26T19:16:37.302Z,6.90
2018-05-26T19:19:05.569Z,9.20
2018-05-26T19:21:33.067Z,20.97
2018-05-26T19:24:00.573Z,8.10
2018-05-26T19:26:28.079Z,9.03
2018-05-26T19:28:55.611Z,7.93
2018-05-26T19:31:23.122Z,10.30
2018-05-26T19:33:50.659Z,8.53
2018-05-26T19:36:18.593Z,8.00
2018-05-26T19:38:46.425Z,9.27
2018-05-26T19:41:14.724Z,9.27
2018-05-26T19:43:42.226Z,8.50
2018-05-26T19:46:09.778Z,6.63
2018-05-26T19:48:38.638Z,8.73
2018-05-26T19:51:07.501Z,8.63
2018-05-26T19:53:35.012Z,6.00
2018-05-26T19:56:03.303Z,7.67
2018-05-26T19:58:31.216Z,5.47
2018-05-26T20:00:58.731Z,5.20
2018-05-26T20:03:26.238Z,7.60
2018-05-26T20:05:54.225Z,6.80
2018-05-26T20:08:21.772Z,6.50
2018-05-26T20:10:49.291Z,5.77
2018-05-26T20:13:16.842Z,5.17
2018-05-26T20:15:44.378Z,6.27
2018-05-26T20:18:12.332Z,5.77
2018-05-26T20:20:39.892Z,5.33
2018-05-26T20:23:07.437Z,6.00
2018-05-26T20:25:34.960Z,5.40
2018-05-26T20:28:03.623Z,6.53
2018-05-26T20:30:31.152Z,6.30
2018-05-26T20:32:58.663Z,5.77
2018-05-26T20:35:26.962Z,5.07
2018-05-26T20:37:56.019Z,5.53
2018-05-26T20:40:23.530Z,6.00
2018-05-26T20:42:51.072Z,5.40
2018-05-26T20:45:18.596Z,6.00
2018-05-26T20:47:46.867Z,5.77
2018-05-26T20:50:15.165Z,6.10
2018-05-26T20:52:42.669Z,5.10
2018-05-26T20:55:10.174Z,5.73
2018-05-26T20:57:38.065Z,6.30
2018-05-26T21:00:06.709Z,7.03
2018-05-26T21:02:35.001Z,7.30
2018-05-26T21:05:02.553Z,6.80
2018-05-26T21:07:30.828Z,6.47
2018-05-26T21:09:59.516Z,6.40
2018-05-26T21:12:27.022Z,6.60
2018-05-26T21:14:54.959Z,6.90
2018-05-26T21:17:22.872Z,6.10
2018-05-26T21:19:50.397Z,6.20
2018-05-26T21:22:17.928Z,6.27
2018-05-26T21:24:45.834Z,6.30
2018-05-26T21:27:13.351Z,6.40
2018-05-26T21:29:41.619Z,7.33
2018-05-26T21:32:09.990Z,6.10
2018-05-26T21:34:37.879Z,6.10
2018-05-26T21:37:06.160Z,6.40
2018-05-26T21:39:33.661Z,6.33
2018-05-26T21:42:01.195Z,6.57
2018-05-26T21:44:28.698Z,7.00
2018-05-26T21:46:56.223Z,6.57
2018-05-26T21:49:24.854Z,6.77
2018-05-26T21:51:53.127Z,6.70
2018-05-26T21:54:20.645Z,6.50
2018-05-26T21:56:48.158Z,6.97
2018-05-26T21:59:16.072Z,7.43
2018-05-26T22:01:43.575Z,7.30
2018-05-26T22:04:12.588Z,8.10
2018-05-26T22:06:40.843Z,7.10
2018-05-26T22:09:08.377Z,8.27
2018-05-26T22:11:35.879Z,7.20
2018-05-26T22:14:04.547Z,8.00
2018-05-26T22:16:32.061Z,8.43
2018-05-26T22:18:59.571Z,7.73
2018-05-26T22:21:27.872Z,7.90
2018-05-26T22:23:55.375Z,8.40
2018-05-26T22:26:22.895Z,7.10
2018-05-26T22:28:50.416Z,8.00
2018-05-26T22:31:17.940Z,7.83
2018-05-26T22:33:45.857Z,8.50
2018-05-26T22:36:14.149Z,8.10
2018-05-26T22:38:41.643Z,9.33
2018-05-26T22:41:10.299Z,8.80
2018-05-26T22:43:37.809Z,8.17
2018-05-26T22:46:05.735Z,8.50
2018-05-26T22:48:33.625Z,9.30
2018-05-26T22:51:01.157Z,8.30
2018-05-26T22:53:28.668Z,7.70
2018-05-26T22:55:56.976Z,8.43
2018-05-26T22:58:24.547Z,8.33
2018-05-26T23:00:52.059Z,8.60
2018-05-26T23:03:19.577Z,7.90
2018-05-26T23:05:47.103Z,8.47
2018-05-26T23:08:15.405Z,7.70
2018-05-26T23:10:42.933Z,10.90
2018-05-26T23:13:11.233Z,9.80
2018-05-26T23:15:38.747Z,9.73
2018-05-26T23:18:06.655Z,12.80
2018-05-26T23:20:35.526Z,10.87
2018-05-26T23:23:03.051Z,10.77
2018-05-26T23:25:30.989Z,11.10
2018-05-26T23:27:58.549Z,11.13
2018-05-26T23:30:26.073Z,10.70
2018-05-26T23:32:55.086Z,12.10
2018-05-26T23:35:23.017Z,10.57
2018-05-26T23:37:50.519Z,11.10
2018-05-26T23:40:18.049Z,11.27
2018-05-26T23:42:45.610Z,11.80
2018-05-26T23:45:13.157Z,10.07
2018-05-26T23:47:41.430Z,14.60
2018-05-26T23:50:10.452Z,9.87
2018-05-26T23:52:38.385Z,8.10
2018-05-26T23:55:07.252Z,7.97
2018-05-26T23:57:34.761Z,7.47
